sensor_id;sensor_type;location;lat;lon;timestamp;P1;durP1;ratioP1;P2;durP2;ratioP2
68942;SDS011;60852;52.190;4.422;2023-05-19T00:00:41;7.39;;;7.37;;
68942;SDS011;60852;52.190;4.422;2023-05-19T00:03:09;7.34;;;7.30;;
68942;SDS011;60852;52.190;4.422;2023-05-19T00:05:37;7.26;;;7.20;;
68942;SDS011;60852;52.190;4.422;2023-05-19T00:08:09;7.14;;;7.09;;
68942;SDS011;60852;52.190;4.422;2023-05-19T00:10:36;7.00;;;7.00;;
68942;SDS011;60852;52.190;4.422;2023-05-19T00:13:02;7.11;;;7.11;;
68942;SDS011;60852;52.190;4.422;2023-05-19T00:15:28;6.92;;;6.92;;
68942;SDS011;60852;52.190;4.422;2023-05-19T00:17:54;7.02;;;7.02;;
68942;SDS011;60852;52.190;4.422;2023-05-19T00:20:20;6.87;;;6.87;;
68942;SDS011;60852;52.190;4.422;2023-05-19T00:22:46;6.91;;;6.91;;
68942;SDS011;60852;52.190;4.422;2023-05-19T00:25:11;6.76;;;6.75;;
68942;SDS011;60852;52.190;4.422;2023-05-19T00:27:37;7.04;;;7.04;;
68942;SDS011;60852;52.190;4.422;2023-05-19T00:30:02;6.92;;;6.92;;
68942;SDS011;60852;52.190;4.422;2023-05-19T00:32:28;6.99;;;6.99;;
68942;SDS011;60852;52.190;4.422;2023-05-19T00:34:53;6.79;;;6.79;;
68942;SDS011;60852;52.190;4.422;2023-05-19T00:37:19;7.01;;;7.01;;
68942;SDS011;60852;52.190;4.422;2023-05-19T00:39:44;7.40;;;7.40;;
68942;SDS011;60852;52.190;4.422;2023-05-19T00:42:10;6.98;;;6.91;;
68942;SDS011;60852;52.190;4.422;2023-05-19T00:44:36;7.45;;;7.34;;
68942;SDS011;60852;52.190;4.422;2023-05-19T00:47:05;7.61;;;7.60;;
68942;SDS011;60852;52.190;4.422;2023-05-19T00:49:31;7.60;;;7.51;;
68942;SDS011;60852;52.190;4.422;2023-05-19T00:51:58;7.49;;;7.48;;
68942;SDS011;60852;52.190;4.422;2023-05-19T00:54:25;7.07;;;7.07;;
68942;SDS011;60852;52.190;4.422;2023-05-19T00:56:52;7.28;;;7.28;;
68942;SDS011;60852;52.190;4.422;2023-05-19T00:59:19;7.86;;;7.85;;
68942;SDS011;60852;52.190;4.422;2023-05-19T01:01:45;7.26;;;7.23;;
68942;SDS011;60852;52.190;4.422;2023-05-19T01:04:19;7.26;;;7.23;;
68942;SDS011;60852;52.190;4.422;2023-05-19T01:06:46;7.77;;;7.70;;
68942;SDS011;60852;52.190;4.422;2023-05-19T01:09:13;8.18;;;8.14;;
68942;SDS011;60852;52.190;4.422;2023-05-19T01:11:40;8.06;;;8.03;;
68942;SDS011;60852;52.190;4.422;2023-05-19T01:14:06;7.67;;;7.67;;
68942;SDS011;60852;52.190;4.422;2023-05-19T01:16:33;7.58;;;7.58;;
68942;SDS011;60852;52.190;4.422;2023-05-19T01:24:49;7.51;;;7.49;;
68942;SDS011;60852;52.190;4.422;2023-05-19T01:30:41;7.57;;;7.57;;
68942;SDS011;60852;52.190;4.422;2023-05-19T01:33:09;7.84;;;7.84;;
68942;SDS011;60852;52.190;4.422;2023-05-19T01:35:40;7.36;;;7.36;;
68942;SDS011;60852;52.190;4.422;2023-05-19T01:38:08;7.41;;;7.40;;
68942;SDS011;60852;52.190;4.422;2023-05-19T01:40:36;7.19;;;7.14;;
68942;SDS011;60852;52.190;4.422;2023-05-19T01:43:03;7.74;;;7.74;;
68942;SDS011;60852;52.190;4.422;2023-05-19T01:45:31;7.10;;;7.10;;
68942;SDS011;60852;52.190;4.422;2023-05-19T01:47:59;7.62;;;7.62;;
68942;SDS011;60852;52.190;4.422;2023-05-19T01:50:27;7.95;;;7.95;;
68942;SDS011;60852;52.190;4.422;2023-05-19T01:52:53;7.38;;;7.38;;
68942;SDS011;60852;52.190;4.422;2023-05-19T01:55:19;7.54;;;7.54;;
68942;SDS011;60852;52.190;4.422;2023-05-19T02:09:03;7.57;;;7.57;;
68942;SDS011;60852;52.190;4.422;2023-05-19T02:14:12;8.00;;;7.95;;
68942;SDS011;60852;52.190;4.422;2023-05-19T02:16:44;7.78;;;7.77;;
68942;SDS011;60852;52.190;4.422;2023-05-19T02:19:19;8.09;;;7.99;;
68942;SDS011;60852;52.190;4.422;2023-05-19T02:21:47;8.50;;;8.50;;
68942;SDS011;60852;52.190;4.422;2023-05-19T02:24:13;8.28;;;8.28;;
68942;SDS011;60852;52.190;4.422;2023-05-19T02:26:38;8.03;;;8.03;;
68942;SDS011;60852;52.190;4.422;2023-05-19T02:29:04;7.76;;;7.76;;
68942;SDS011;60852;52.190;4.422;2023-05-19T02:31:30;7.70;;;7.70;;
68942;SDS011;60852;52.190;4.422;2023-05-19T02:33:55;8.07;;;8.07;;
68942;SDS011;60852;52.190;4.422;2023-05-19T02:36:20;8.14;;;8.14;;
68942;SDS011;60852;52.190;4.422;2023-05-19T02:38:46;7.49;;;7.49;;
68942;SDS011;60852;52.190;4.422;2023-05-19T02:41:11;7.70;;;7.70;;
68942;SDS011;60852;52.190;4.422;2023-05-19T02:43:37;8.12;;;8.12;;
68942;SDS011;60852;52.190;4.422;2023-05-19T02:46:02;8.03;;;8.03;;
68942;SDS011;60852;52.190;4.422;2023-05-19T02:48:28;8.14;;;8.12;;
68942;SDS011;60852;52.190;4.422;2023-05-19T02:50:53;8.54;;;8.42;;
68942;SDS011;60852;52.190;4.422;2023-05-19T02:53:19;8.40;;;8.30;;
68942;SDS011;60852;52.190;4.422;2023-05-19T02:55:44;8.39;;;8.39;;
68942;SDS011;60852;52.190;4.422;2023-05-19T02:58:10;8.64;;;8.63;;
68942;SDS011;60852;52.190;4.422;2023-05-19T03:00:35;8.80;;;8.80;;
68942;SDS011;60852;52.190;4.422;2023-05-19T03:03:01;8.61;;;8.61;;
68942;SDS011;60852;52.190;4.422;2023-05-19T03:05:27;8.67;;;8.67;;
68942;SDS011;60852;52.190;4.422;2023-05-19T03:07:54;8.20;;;8.20;;
68942;SDS011;60852;52.190;4.422;2023-05-19T03:10:20;9.48;;;9.47;;
68942;SDS011;60852;52.190;4.422;2023-05-19T03:12:45;9.41;;;9.37;;
68942;SDS011;60852;52.190;4.422;2023-05-19T03:15:10;9.40;;;9.39;;
68942;SDS011;60852;52.190;4.422;2023-05-19T03:17:37;9.40;;;9.37;;
68942;SDS011;60852;52.190;4.422;2023-05-19T03:20:03;9.78;;;9.57;;
68942;SDS011;60852;52.190;4.422;2023-05-19T03:22:29;9.30;;;9.28;;
68942;SDS011;60852;52.190;4.422;2023-05-19T03:24:56;8.92;;;8.91;;
68942;SDS011;60852;52.190;4.422;2023-05-19T03:27:22;9.89;;;9.84;;
68942;SDS011;60852;52.190;4.422;2023-05-19T03:29:48;9.43;;;9.34;;
68942;SDS011;60852;52.190;4.422;2023-05-19T03:32:13;9.32;;;9.29;;
68942;SDS011;60852;52.190;4.422;2023-05-19T03:34:39;9.48;;;9.45;;
68942;SDS011;60852;52.190;4.422;2023-05-19T03:37:05;9.74;;;9.69;;
68942;SDS011;60852;52.190;4.422;2023-05-19T03:39:30;9.66;;;9.57;;
68942;SDS011;60852;52.190;4.422;2023-05-19T03:41:56;9.43;;;9.43;;
68942;SDS011;60852;52.190;4.422;2023-05-19T03:44:21;9.51;;;9.48;;
68942;SDS011;60852;52.190;4.422;2023-05-19T03:46:47;9.46;;;9.45;;
68942;SDS011;60852;52.190;4.422;2023-05-19T03:49:12;10.03;;;9.96;;
68942;SDS011;60852;52.190;4.422;2023-05-19T03:51:39;10.60;;;10.56;;
68942;SDS011;60852;52.190;4.422;2023-05-19T03:54:05;9.58;;;9.55;;
68942;SDS011;60852;52.190;4.422;2023-05-19T03:56:30;10.10;;;9.98;;
68942;SDS011;60852;52.190;4.422;2023-05-19T03:58:56;9.86;;;9.76;;
68942;SDS011;60852;52.190;4.422;2023-05-19T04:01:22;9.79;;;9.65;;
68942;SDS011;60852;52.190;4.422;2023-05-19T04:03:48;9.88;;;9.78;;
68942;SDS011;60852;52.190;4.422;2023-05-19T04:06:13;10.13;;;10.10;;
68942;SDS011;60852;52.190;4.422;2023-05-19T04:08:39;9.67;;;9.67;;
68942;SDS011;60852;52.190;4.422;2023-05-19T04:11:04;9.74;;;9.71;;
68942;SDS011;60852;52.190;4.422;2023-05-19T04:13:33;9.79;;;9.71;;
68942;SDS011;60852;52.190;4.422;2023-05-19T04:15:59;9.55;;;9.49;;
68942;SDS011;60852;52.190;4.422;2023-05-19T04:18:25;9.49;;;9.45;;
68942;SDS011;60852;52.190;4.422;2023-05-19T04:20:51;9.40;;;9.40;;
68942;SDS011;60852;52.190;4.422;2023-05-19T04:23:16;9.27;;;9.26;;
68942;SDS011;60852;52.190;4.422;2023-05-19T04:25:41;9.64;;;9.63;;
68942;SDS011;60852;52.190;4.422;2023-05-19T04:28:07;9.97;;;9.79;;
68942;SDS011;60852;52.190;4.422;2023-05-19T04:30:32;10.08;;;10.00;;
68942;SDS011;60852;52.190;4.422;2023-05-19T04:32:58;9.34;;;9.32;;
68942;SDS011;60852;52.190;4.422;2023-05-19T04:35:25;9.23;;;9.22;;
68942;SDS011;60852;52.190;4.422;2023-05-19T04:37:51;9.20;;;9.18;;
68942;SDS011;60852;52.190;4.422;2023-05-19T04:40:18;9.29;;;9.26;;
68942;SDS011;60852;52.190;4.422;2023-05-19T04:42:46;9.38;;;9.38;;
68942;SDS011;60852;52.190;4.422;2023-05-19T04:45:13;9.54;;;9.53;;
68942;SDS011;60852;52.190;4.422;2023-05-19T04:47:39;9.45;;;9.44;;
68942;SDS011;60852;52.190;4.422;2023-05-19T04:50:05;9.82;;;9.77;;
68942;SDS011;60852;52.190;4.422;2023-05-19T04:52:32;10.06;;;10.01;;
68942;SDS011;60852;52.190;4.422;2023-05-19T04:54:58;9.98;;;9.94;;
68942;SDS011;60852;52.190;4.422;2023-05-19T04:57:23;9.66;;;9.63;;
68942;SDS011;60852;52.190;4.422;2023-05-19T04:59:49;10.54;;;10.48;;
68942;SDS011;60852;52.190;4.422;2023-05-19T05:02:14;10.51;;;10.43;;
68942;SDS011;60852;52.190;4.422;2023-05-19T05:04:40;10.32;;;10.19;;
68942;SDS011;60852;52.190;4.422;2023-05-19T05:07:11;10.02;;;10.01;;
68942;SDS011;60852;52.190;4.422;2023-05-19T05:09:36;10.41;;;10.35;;
68942;SDS011;60852;52.190;4.422;2023-05-19T05:12:02;11.10;;;11.00;;
68942;SDS011;60852;52.190;4.422;2023-05-19T05:14:28;10.52;;;10.48;;
68942;SDS011;60852;52.190;4.422;2023-05-19T05:16:53;10.70;;;10.53;;
68942;SDS011;60852;52.190;4.422;2023-05-19T05:19:20;11.35;;;11.30;;
68942;SDS011;60852;52.190;4.422;2023-05-19T05:21:46;11.14;;;11.10;;
68942;SDS011;60852;52.190;4.422;2023-05-19T05:24:12;11.16;;;11.15;;
68942;SDS011;60852;52.190;4.422;2023-05-19T05:26:38;11.56;;;11.52;;
68942;SDS011;60852;52.190;4.422;2023-05-19T05:29:03;11.78;;;11.68;;
68942;SDS011;60852;52.190;4.422;2023-05-19T05:31:29;11.49;;;11.43;;
68942;SDS011;60852;52.190;4.422;2023-05-19T05:33:55;10.97;;;10.94;;
68942;SDS011;60852;52.190;4.422;2023-05-19T05:36:21;10.56;;;10.55;;
68942;SDS011;60852;52.190;4.422;2023-05-19T05:38:46;11.10;;;11.09;;
68942;SDS011;60852;52.190;4.422;2023-05-19T05:41:12;11.28;;;11.26;;
68942;SDS011;60852;52.190;4.422;2023-05-19T05:43:37;10.84;;;10.75;;
68942;SDS011;60852;52.190;4.422;2023-05-19T05:46:02;10.41;;;10.32;;
68942;SDS011;60852;52.190;4.422;2023-05-19T05:48:28;10.93;;;10.79;;
68942;SDS011;60852;52.190;4.422;2023-05-19T05:50:55;10.45;;;10.41;;
68942;SDS011;60852;52.190;4.422;2023-05-19T05:53:21;10.31;;;10.30;;
68942;SDS011;60852;52.190;4.422;2023-05-19T05:55:50;10.31;;;10.23;;
68942;SDS011;60852;52.190;4.422;2023-05-19T05:58:17;10.00;;;9.98;;
68942;SDS011;60852;52.190;4.422;2023-05-19T06:00:42;10.17;;;10.05;;
68942;SDS011;60852;52.190;4.422;2023-05-19T06:03:09;9.75;;;9.72;;
68942;SDS011;60852;52.190;4.422;2023-05-19T06:05:35;9.67;;;9.67;;
68942;SDS011;60852;52.190;4.422;2023-05-19T06:08:01;9.36;;;9.36;;
68942;SDS011;60852;52.190;4.422;2023-05-19T06:10:27;9.19;;;9.19;;
68942;SDS011;60852;52.190;4.422;2023-05-19T06:12:53;9.62;;;9.62;;
68942;SDS011;60852;52.190;4.422;2023-05-19T06:15:18;9.80;;;9.79;;
68942;SDS011;60852;52.190;4.422;2023-05-19T06:17:44;9.86;;;9.85;;
68942;SDS011;60852;52.190;4.422;2023-05-19T06:20:09;10.35;;;10.34;;
68942;SDS011;60852;52.190;4.422;2023-05-19T06:22:37;10.47;;;10.46;;
68942;SDS011;60852;52.190;4.422;2023-05-19T06:25:02;10.81;;;10.80;;
68942;SDS011;60852;52.190;4.422;2023-05-19T06:27:28;11.05;;;11.05;;
68942;SDS011;60852;52.190;4.422;2023-05-19T06:29:54;11.38;;;11.34;;
68942;SDS011;60852;52.190;4.422;2023-05-19T06:32:19;11.42;;;11.37;;
68942;SDS011;60852;52.190;4.422;2023-05-19T06:34:44;11.93;;;11.88;;
68942;SDS011;60852;52.190;4.422;2023-05-19T06:37:10;11.69;;;11.64;;
68942;SDS011;60852;52.190;4.422;2023-05-19T06:39:36;11.44;;;11.40;;
68942;SDS011;60852;52.190;4.422;2023-05-19T06:42:02;11.70;;;11.67;;
68942;SDS011;60852;52.190;4.422;2023-05-19T06:44:27;12.49;;;12.44;;
68942;SDS011;60852;52.190;4.422;2023-05-19T06:46:53;12.23;;;12.21;;
68942;SDS011;60852;52.190;4.422;2023-05-19T06:49:18;11.83;;;11.72;;
68942;SDS011;60852;52.190;4.422;2023-05-19T06:51:44;12.01;;;11.99;;
68942;SDS011;60852;52.190;4.422;2023-05-19T06:54:10;11.88;;;11.84;;
68942;SDS011;60852;52.190;4.422;2023-05-19T06:56:37;12.63;;;12.47;;
68942;SDS011;60852;52.190;4.422;2023-05-19T06:59:02;12.06;;;12.04;;
68942;SDS011;60852;52.190;4.422;2023-05-19T07:01:28;12.34;;;12.25;;
68942;SDS011;60852;52.190;4.422;2023-05-19T07:03:54;13.08;;;12.96;;
68942;SDS011;60852;52.190;4.422;2023-05-19T07:06:19;12.80;;;12.73;;
68942;SDS011;60852;52.190;4.422;2023-05-19T07:08:45;12.45;;;12.41;;
68942;SDS011;60852;52.190;4.422;2023-05-19T07:11:10;12.39;;;12.35;;
68942;SDS011;60852;52.190;4.422;2023-05-19T07:13:36;12.71;;;12.68;;
68942;SDS011;60852;52.190;4.422;2023-05-19T07:16:02;12.48;;;12.43;;
68942;SDS011;60852;52.190;4.422;2023-05-19T07:18:27;12.36;;;12.32;;
68942;SDS011;60852;52.190;4.422;2023-05-19T07:20:56;12.73;;;12.72;;
68942;SDS011;60852;52.190;4.422;2023-05-19T07:23:22;13.11;;;13.03;;
68942;SDS011;60852;52.190;4.422;2023-05-19T07:25:48;13.19;;;13.07;;
68942;SDS011;60852;52.190;4.422;2023-05-19T07:28:14;13.01;;;12.94;;
68942;SDS011;60852;52.190;4.422;2023-05-19T07:30:39;13.10;;;13.06;;
68942;SDS011;60852;52.190;4.422;2023-05-19T07:33:05;12.89;;;12.82;;
68942;SDS011;60852;52.190;4.422;2023-05-19T07:35:31;12.68;;;12.65;;
68942;SDS011;60852;52.190;4.422;2023-05-19T07:37:56;12.38;;;12.37;;
68942;SDS011;60852;52.190;4.422;2023-05-19T07:40:22;12.09;;;12.09;;
68942;SDS011;60852;52.190;4.422;2023-05-19T07:42:48;11.60;;;11.59;;
68942;SDS011;60852;52.190;4.422;2023-05-19T07:45:14;11.15;;;11.12;;
68942;SDS011;60852;52.190;4.422;2023-05-19T07:47:40;10.78;;;10.78;;
68942;SDS011;60852;52.190;4.422;2023-05-19T07:50:05;10.18;;;10.18;;
68942;SDS011;60852;52.190;4.422;2023-05-19T07:52:31;9.17;;;9.17;;
68942;SDS011;60852;52.190;4.422;2023-05-19T07:54:57;9.06;;;9.06;;
68942;SDS011;60852;52.190;4.422;2023-05-19T07:57:23;8.32;;;8.32;;
68942;SDS011;60852;52.190;4.422;2023-05-19T07:59:49;8.18;;;8.18;;
68942;SDS011;60852;52.190;4.422;2023-05-19T08:02:14;8.68;;;8.68;;
68942;SDS011;60852;52.190;4.422;2023-05-19T08:04:40;8.34;;;8.33;;
68942;SDS011;60852;52.190;4.422;2023-05-19T08:07:05;8.91;;;8.90;;
68942;SDS011;60852;52.190;4.422;2023-05-19T08:09:31;9.36;;;9.36;;
68942;SDS011;60852;52.190;4.422;2023-05-19T08:11:56;9.09;;;9.09;;
68942;SDS011;60852;52.190;4.422;2023-05-19T08:14:22;8.45;;;8.45;;
68942;SDS011;60852;52.190;4.422;2023-05-19T08:16:48;7.52;;;7.52;;
68942;SDS011;60852;52.190;4.422;2023-05-19T08:19:14;7.80;;;7.80;;
68942;SDS011;60852;52.190;4.422;2023-05-19T08:21:39;8.11;;;8.11;;
68942;SDS011;60852;52.190;4.422;2023-05-19T08:24:06;7.95;;;7.95;;
68942;SDS011;60852;52.190;4.422;2023-05-19T08:26:32;8.12;;;8.12;;
68942;SDS011;60852;52.190;4.422;2023-05-19T08:28:58;8.24;;;8.24;;
68942;SDS011;60852;52.190;4.422;2023-05-19T08:31:23;7.54;;;7.54;;
68942;SDS011;60852;52.190;4.422;2023-05-19T08:33:49;7.40;;;7.40;;
68942;SDS011;60852;52.190;4.422;2023-05-19T08:36:15;6.78;;;6.78;;
68942;SDS011;60852;52.190;4.422;2023-05-19T08:38:41;7.03;;;7.03;;
68942;SDS011;60852;52.190;4.422;2023-05-19T08:41:06;6.89;;;6.89;;
68942;SDS011;60852;52.190;4.422;2023-05-19T08:43:32;6.23;;;6.23;;
68942;SDS011;60852;52.190;4.422;2023-05-19T08:45:58;6.36;;;6.36;;
68942;SDS011;60852;52.190;4.422;2023-05-19T08:48:24;6.28;;;6.28;;
68942;SDS011;60852;52.190;4.422;2023-05-19T08:51:05;6.24;;;6.24;;
68942;SDS011;60852;52.190;4.422;2023-05-19T08:53:43;6.01;;;6.01;;
68942;SDS011;60852;52.190;4.422;2023-05-19T08:56:15;5.97;;;5.97;;
68942;SDS011;60852;52.190;4.422;2023-05-19T08:58:48;6.42;;;6.42;;
68942;SDS011;60852;52.190;4.422;2023-05-19T09:01:15;7.10;;;7.10;;
68942;SDS011;60852;52.190;4.422;2023-05-19T09:03:41;6.24;;;6.24;;
68942;SDS011;60852;52.190;4.422;2023-05-19T09:06:08;5.54;;;5.54;;
68942;SDS011;60852;52.190;4.422;2023-05-19T09:08:41;5.39;;;5.39;;
68942;SDS011;60852;52.190;4.422;2023-05-19T09:11:07;5.14;;;5.14;;
68942;SDS011;60852;52.190;4.422;2023-05-19T09:13:34;5.00;;;5.00;;
68942;SDS011;60852;52.190;4.422;2023-05-19T09:16:00;5.33;;;5.33;;
68942;SDS011;60852;52.190;4.422;2023-05-19T09:18:27;5.10;;;5.10;;
68942;SDS011;60852;52.190;4.422;2023-05-19T09:20:56;5.08;;;5.08;;
68942;SDS011;60852;52.190;4.422;2023-05-19T09:23:25;5.45;;;5.45;;
68942;SDS011;60852;52.190;4.422;2023-05-19T09:25:53;5.48;;;5.48;;
68942;SDS011;60852;52.190;4.422;2023-05-19T09:28:26;5.55;;;5.55;;
68942;SDS011;60852;52.190;4.422;2023-05-19T09:31:06;5.34;;;5.34;;
68942;SDS011;60852;52.190;4.422;2023-05-19T09:33:37;5.15;;;5.12;;
68942;SDS011;60852;52.190;4.422;2023-05-19T09:36:04;4.86;;;4.86;;
68942;SDS011;60852;52.190;4.422;2023-05-19T09:38:32;4.71;;;4.71;;
68942;SDS011;60852;52.190;4.422;2023-05-19T09:40:59;4.76;;;4.76;;
68942;SDS011;60852;52.190;4.422;2023-05-19T09:43:29;4.60;;;4.60;;
68942;SDS011;60852;52.190;4.422;2023-05-19T09:46:04;4.75;;;4.75;;
68942;SDS011;60852;52.190;4.422;2023-05-19T09:48:35;4.80;;;4.80;;
68942;SDS011;60852;52.190;4.422;2023-05-19T09:51:01;4.85;;;4.85;;
68942;SDS011;60852;52.190;4.422;2023-05-19T09:53:29;4.27;;;4.27;;
68942;SDS011;60852;52.190;4.422;2023-05-19T09:55:56;5.31;;;5.31;;
68942;SDS011;60852;52.190;4.422;2023-05-19T09:58:22;4.65;;;4.65;;
68942;SDS011;60852;52.190;4.422;2023-05-19T10:00:51;4.77;;;4.77;;
68942;SDS011;60852;52.190;4.422;2023-05-19T10:03:19;4.68;;;4.68;;
68942;SDS011;60852;52.190;4.422;2023-05-19T10:05:46;4.40;;;4.40;;
68942;SDS011;60852;52.190;4.422;2023-05-19T10:08:13;4.97;;;4.97;;
68942;SDS011;60852;52.190;4.422;2023-05-19T10:10:41;5.41;;;5.41;;
68942;SDS011;60852;52.190;4.422;2023-05-19T10:13:09;5.16;;;5.16;;
68942;SDS011;60852;52.190;4.422;2023-05-19T10:15:36;4.62;;;4.62;;
68942;SDS011;60852;52.190;4.422;2023-05-19T10:18:02;4.35;;;4.35;;
68942;SDS011;60852;52.190;4.422;2023-05-19T10:20:28;4.54;;;4.54;;
68942;SDS011;60852;52.190;4.422;2023-05-19T10:22:55;4.89;;;4.89;;
68942;SDS011;60852;52.190;4.422;2023-05-19T10:25:21;4.85;;;4.85;;
68942;SDS011;60852;52.190;4.422;2023-05-19T10:27:56;4.89;;;4.89;;
68942;SDS011;60852;52.190;4.422;2023-05-19T10:30:32;4.97;;;4.97;;
68942;SDS011;60852;52.190;4.422;2023-05-19T10:33:01;4.90;;;4.90;;
68942;SDS011;60852;52.190;4.422;2023-05-19T10:38:33;4.70;;;4.70;;
68942;SDS011;60852;52.190;4.422;2023-05-19T10:41:27;4.91;;;4.91;;
68942;SDS011;60852;52.190;4.422;2023-05-19T10:47:13;5.05;;;5.05;;
68942;SDS011;60852;52.190;4.422;2023-05-19T10:49:39;4.87;;;4.87;;
68942;SDS011;60852;52.190;4.422;2023-05-19T10:52:17;4.83;;;4.83;;
68942;SDS011;60852;52.190;4.422;2023-05-19T10:54:45;4.73;;;4.73;;
68942;SDS011;60852;52.190;4.422;2023-05-19T10:57:14;4.96;;;4.96;;
68942;SDS011;60852;52.190;4.422;2023-05-19T10:59:44;5.48;;;5.48;;
68942;SDS011;60852;52.190;4.422;2023-05-19T11:02:10;5.46;;;5.46;;
68942;SDS011;60852;52.190;4.422;2023-05-19T11:05:10;5.06;;;5.06;;
68942;SDS011;60852;52.190;4.422;2023-05-19T11:07:42;5.13;;;5.13;;
68942;SDS011;60852;52.190;4.422;2023-05-19T11:10:09;5.24;;;5.24;;
68942;SDS011;60852;52.190;4.422;2023-05-19T11:12:38;5.76;;;5.76;;
68942;SDS011;60852;52.190;4.422;2023-05-19T11:15:08;5.89;;;5.89;;
68942;SDS011;60852;52.190;4.422;2023-05-19T11:17:36;5.66;;;5.66;;
68942;SDS011;60852;52.190;4.422;2023-05-19T11:20:05;5.76;;;5.76;;
68942;SDS011;60852;52.190;4.422;2023-05-19T11:22:36;5.58;;;5.58;;
68942;SDS011;60852;52.190;4.422;2023-05-19T11:25:02;6.02;;;6.02;;
68942;SDS011;60852;52.190;4.422;2023-05-19T11:27:29;5.62;;;5.62;;
68942;SDS011;60852;52.190;4.422;2023-05-19T11:29:57;5.51;;;5.51;;
68942;SDS011;60852;52.190;4.422;2023-05-19T11:32:39;5.21;;;5.21;;
68942;SDS011;60852;52.190;4.422;2023-05-19T11:35:07;5.68;;;5.68;;
68942;SDS011;60852;52.190;4.422;2023-05-19T11:37:34;5.79;;;5.79;;
68942;SDS011;60852;52.190;4.422;2023-05-19T11:40:00;6.29;;;6.29;;
68942;SDS011;60852;52.190;4.422;2023-05-19T11:42:26;6.44;;;6.44;;
68942;SDS011;60852;52.190;4.422;2023-05-19T11:44:53;6.57;;;6.57;;
68942;SDS011;60852;52.190;4.422;2023-05-19T11:47:20;6.39;;;6.39;;
68942;SDS011;60852;52.190;4.422;2023-05-19T11:49:49;6.12;;;6.12;;
68942;SDS011;60852;52.190;4.422;2023-05-19T11:52:25;6.13;;;6.13;;
68942;SDS011;60852;52.190;4.422;2023-05-19T11:54:54;6.59;;;6.59;;
68942;SDS011;60852;52.190;4.422;2023-05-19T11:57:20;6.16;;;6.16;;
68942;SDS011;60852;52.190;4.422;2023-05-19T11:59:46;6.82;;;6.82;;
68942;SDS011;60852;52.190;4.422;2023-05-19T12:02:21;6.51;;;6.51;;
68942;SDS011;60852;52.190;4.422;2023-05-19T12:04:52;6.40;;;6.40;;
68942;SDS011;60852;52.190;4.422;2023-05-19T12:07:19;6.21;;;6.21;;
68942;SDS011;60852;52.190;4.422;2023-05-19T12:09:47;6.43;;;6.43;;
68942;SDS011;60852;52.190;4.422;2023-05-19T12:12:15;5.91;;;5.91;;
68942;SDS011;60852;52.190;4.422;2023-05-19T12:14:43;5.38;;;5.38;;
68942;SDS011;60852;52.190;4.422;2023-05-19T12:17:17;5.70;;;5.70;;
68942;SDS011;60852;52.190;4.422;2023-05-19T12:19:47;5.36;;;5.36;;
68942;SDS011;60852;52.190;4.422;2023-05-19T12:22:17;5.35;;;5.35;;
68942;SDS011;60852;52.190;4.422;2023-05-19T12:24:43;5.21;;;5.21;;
68942;SDS011;60852;52.190;4.422;2023-05-19T12:27:15;5.41;;;5.41;;
68942;SDS011;60852;52.190;4.422;2023-05-19T12:29:41;5.43;;;5.43;;
68942;SDS011;60852;52.190;4.422;2023-05-19T12:32:07;5.29;;;5.29;;
68942;SDS011;60852;52.190;4.422;2023-05-19T12:34:37;5.31;;;5.31;;
68942;SDS011;60852;52.190;4.422;2023-05-19T12:37:03;5.16;;;5.16;;
68942;SDS011;60852;52.190;4.422;2023-05-19T12:39:30;5.29;;;5.29;;
68942;SDS011;60852;52.190;4.422;2023-05-19T12:44:28;5.10;;;5.10;;
68942;SDS011;60852;52.190;4.422;2023-05-19T12:46:56;4.91;;;4.91;;
68942;SDS011;60852;52.190;4.422;2023-05-19T12:49:22;5.16;;;5.16;;
68942;SDS011;60852;52.190;4.422;2023-05-19T12:51:51;5.49;;;5.49;;
68942;SDS011;60852;52.190;4.422;2023-05-19T12:54:18;5.82;;;5.82;;
68942;SDS011;60852;52.190;4.422;2023-05-19T12:56:51;5.45;;;5.45;;
68942;SDS011;60852;52.190;4.422;2023-05-19T12:59:23;5.16;;;5.16;;
68942;SDS011;60852;52.190;4.422;2023-05-19T13:01:56;6.03;;;6.03;;
68942;SDS011;60852;52.190;4.422;2023-05-19T13:04:23;5.57;;;5.57;;
68942;SDS011;60852;52.190;4.422;2023-05-19T13:06:49;5.79;;;5.79;;
68942;SDS011;60852;52.190;4.422;2023-05-19T13:09:14;5.86;;;5.86;;
68942;SDS011;60852;52.190;4.422;2023-05-19T13:11:41;5.54;;;5.54;;
68942;SDS011;60852;52.190;4.422;2023-05-19T13:14:08;5.17;;;5.17;;
68942;SDS011;60852;52.190;4.422;2023-05-19T13:16:34;5.52;;;5.52;;
68942;SDS011;60852;52.190;4.422;2023-05-19T13:18:59;5.05;;;5.05;;
68942;SDS011;60852;52.190;4.422;2023-05-19T13:21:25;5.07;;;5.07;;
68942;SDS011;60852;52.190;4.422;2023-05-19T13:23:51;5.20;;;5.20;;
68942;SDS011;60852;52.190;4.422;2023-05-19T13:26:17;5.06;;;5.05;;
68942;SDS011;60852;52.190;4.422;2023-05-19T13:28:42;4.94;;;4.94;;
68942;SDS011;60852;52.190;4.422;2023-05-19T13:31:08;5.21;;;5.21;;
68942;SDS011;60852;52.190;4.422;2023-05-19T13:33:34;5.28;;;5.23;;
68942;SDS011;60852;52.190;4.422;2023-05-19T13:35:59;4.90;;;4.89;;
68942;SDS011;60852;52.190;4.422;2023-05-19T13:38:24;4.85;;;4.85;;
68942;SDS011;60852;52.190;4.422;2023-05-19T13:40:50;4.88;;;4.88;;
68942;SDS011;60852;52.190;4.422;2023-05-19T13:43:15;5.27;;;5.27;;
68942;SDS011;60852;52.190;4.422;2023-05-19T13:45:41;4.96;;;4.96;;
68942;SDS011;60852;52.190;4.422;2023-05-19T13:48:08;5.43;;;5.43;;
68942;SDS011;60852;52.190;4.422;2023-05-19T13:50:35;5.51;;;5.51;;
68942;SDS011;60852;52.190;4.422;2023-05-19T13:53:01;5.48;;;5.48;;
68942;SDS011;60852;52.190;4.422;2023-05-19T13:55:27;6.03;;;6.03;;
68942;SDS011;60852;52.190;4.422;2023-05-19T13:57:53;5.82;;;5.82;;
68942;SDS011;60852;52.190;4.422;2023-05-19T14:00:18;6.35;;;6.35;;
68942;SDS011;60852;52.190;4.422;2023-05-19T14:02:45;6.23;;;6.23;;
68942;SDS011;60852;52.190;4.422;2023-05-19T14:05:11;6.07;;;6.07;;
68942;SDS011;60852;52.190;4.422;2023-05-19T14:07:37;6.20;;;6.20;;
68942;SDS011;60852;52.190;4.422;2023-05-19T14:10:03;6.24;;;6.24;;
68942;SDS011;60852;52.190;4.422;2023-05-19T14:12:30;5.99;;;5.99;;
68942;SDS011;60852;52.190;4.422;2023-05-19T14:14:57;6.39;;;6.39;;
68942;SDS011;60852;52.190;4.422;2023-05-19T14:17:22;5.94;;;5.94;;
68942;SDS011;60852;52.190;4.422;2023-05-19T14:19:48;5.93;;;5.93;;
68942;SDS011;60852;52.190;4.422;2023-05-19T14:22:13;6.10;;;6.10;;
68942;SDS011;60852;52.190;4.422;2023-05-19T14:24:39;5.78;;;5.78;;
68942;SDS011;60852;52.190;4.422;2023-05-19T14:27:05;6.13;;;6.13;;
68942;SDS011;60852;52.190;4.422;2023-05-19T14:29:31;6.04;;;6.04;;
68942;SDS011;60852;52.190;4.422;2023-05-19T14:31:56;5.43;;;5.43;;
68942;SDS011;60852;52.190;4.422;2023-05-19T14:34:22;5.21;;;5.21;;
68942;SDS011;60852;52.190;4.422;2023-05-19T14:36:47;5.31;;;5.31;;
68942;SDS011;60852;52.190;4.422;2023-05-19T14:39:13;5.28;;;5.28;;
68942;SDS011;60852;52.190;4.422;2023-05-19T14:41:39;5.27;;;5.27;;
68942;SDS011;60852;52.190;4.422;2023-05-19T14:44:04;5.56;;;5.56;;
68942;SDS011;60852;52.190;4.422;2023-05-19T14:46:30;5.41;;;5.41;;
68942;SDS011;60852;52.190;4.422;2023-05-19T14:48:55;5.19;;;5.19;;
68942;SDS011;60852;52.190;4.422;2023-05-19T14:51:21;5.07;;;5.07;;
68942;SDS011;60852;52.190;4.422;2023-05-19T14:53:46;5.02;;;5.02;;
68942;SDS011;60852;52.190;4.422;2023-05-19T14:56:14;4.81;;;4.81;;
68942;SDS011;60852;52.190;4.422;2023-05-19T14:58:39;5.07;;;5.07;;
68942;SDS011;60852;52.190;4.422;2023-05-19T15:01:05;4.95;;;4.95;;
68942;SDS011;60852;52.190;4.422;2023-05-19T15:03:30;4.79;;;4.79;;
68942;SDS011;60852;52.190;4.422;2023-05-19T15:05:56;5.11;;;5.11;;
68942;SDS011;60852;52.190;4.422;2023-05-19T15:08:21;5.05;;;5.05;;
68942;SDS011;60852;52.190;4.422;2023-05-19T15:10:47;5.16;;;5.16;;
68942;SDS011;60852;52.190;4.422;2023-05-19T15:13:13;5.07;;;5.07;;